createdAt,value
2019-01-11T00:00:59.561Z,2.40
2019-01-11T00:03:30.904Z,2.93
2019-01-11T00:05:59.953Z,3.77
2019-01-11T00:08:30.012Z,2.90
2019-01-11T00:11:00.602Z,3.80
2019-01-11T00:13:29.760Z,2.57
2019-01-11T00:15:58.778Z,5.07
2019-01-11T00:18:28.209Z,4.30
2019-01-11T00:20:57.585Z,3.17
2019-01-11T00:23:26.693Z,3.80
2019-01-11T00:25:56.084Z,5.70
2019-01-11T00:28:25.388Z,2.93
2019-01-11T00:30:54.183Z,3.00
2019-01-11T00:33:22.828Z,3.37
2019-01-11T00:35:53.079Z,3.40
2019-01-11T00:38:21.837Z,3.70
2019-01-11T00:40:50.939Z,5.80
2019-01-11T00:43:20.308Z,3.70
2019-01-11T00:45:49.960Z,3.73
2019-01-11T00:48:19.375Z,2.67
2019-01-11T00:50:48.666Z,3.83
2019-01-11T00:53:19.125Z,3.97
2019-01-11T00:55:48.137Z,4.13
2019-01-11T00:58:17.727Z,3.50
2019-01-11T01:00:47.120Z,3.47
2019-01-11T01:03:16.604Z,3.77
2019-01-11T01:05:46.000Z,2.73
2019-01-11T01:08:15.211Z,3.50
2019-01-11T01:10:44.775Z,4.50
2019-01-11T01:13:14.003Z,4.28
2019-01-11T01:15:43.214Z,3.07
2019-01-11T01:18:12.831Z,4.63
2019-01-11T01:20:41.479Z,5.63
2019-01-11T01:23:10.254Z,2.90
2019-01-11T01:25:39.450Z,2.40
2019-01-11T01:28:08.949Z,2.30
2019-01-11T01:30:38.209Z,2.70
2019-01-11T01:33:07.385Z,4.12
2019-01-11T01:35:36.676Z,2.10
2019-01-11T01:38:06.486Z,2.22
2019-01-11T01:40:35.540Z,2.20
2019-01-11T01:43:04.846Z,3.67
2019-01-11T01:45:34.116Z,4.85
2019-01-11T01:48:03.364Z,4.10
2019-01-11T01:50:32.643Z,2.77
2019-01-11T01:53:02.092Z,3.50
2019-01-11T01:55:31.086Z,3.27
2019-01-11T01:58:00.538Z,3.15
2019-01-11T02:00:30.157Z,3.40
2019-01-11T02:02:59.306Z,3.52
2019-01-11T02:05:28.606Z,3.10
2019-01-11T02:07:57.802Z,5.60
2019-01-11T02:10:27.099Z,3.17
2019-01-11T02:12:57.099Z,4.90
2019-01-11T02:15:26.366Z,5.05
2019-01-11T02:17:55.670Z,4.95
2019-01-11T02:20:26.254Z,4.53
2019-01-11T02:22:55.497Z,4.15
2019-01-11T02:25:25.277Z,4.20
2019-01-11T02:27:54.773Z,5.28
2019-01-11T02:30:24.079Z,3.50
2019-01-11T02:32:53.737Z,7.50
2019-01-11T02:35:23.902Z,3.95
2019-01-11T02:37:53.808Z,4.20
2019-01-11T02:40:23.026Z,3.92
2019-01-11T02:42:52.633Z,3.90
2019-01-11T02:45:21.505Z,3.60
2019-01-11T02:47:50.323Z,5.25
2019-01-11T02:50:19.074Z,3.55
2019-01-11T02:52:48.468Z,3.52
2019-01-11T02:55:18.168Z,5.20
2019-01-11T02:57:47.290Z,4.47
2019-01-11T03:00:18.202Z,4.05
2019-01-11T03:02:47.439Z,3.83
2019-01-11T03:05:16.837Z,4.42
2019-01-11T03:07:47.046Z,3.08
2019-01-11T03:10:20.903Z,2.80
2019-01-11T03:12:50.208Z,3.47
2019-01-11T03:15:19.555Z,4.53
2019-01-11T03:17:48.803Z,3.50
2019-01-11T03:20:18.756Z,5.45
2019-01-11T03:22:48.443Z,6.35
2019-01-11T03:25:17.990Z,4.85
2019-01-11T03:27:47.370Z,4.15
2019-01-11T03:30:18.037Z,4.85
2019-01-11T03:32:47.602Z,4.53
2019-01-11T03:35:17.748Z,4.28
2019-01-11T03:37:47.855Z,4.90
2019-01-11T03:40:19.072Z,5.80
2019-01-11T03:42:48.349Z,5.40
2019-01-11T03:45:19.441Z,5.97
2019-01-11T03:47:49.604Z,5.55
2019-01-11T03:50:20.552Z,7.35
2019-01-11T03:52:49.990Z,7.08
2019-01-11T03:55:20.489Z,7.83
2019-01-11T03:57:49.904Z,9.10
2019-01-11T04:00:22.672Z,7.83
2019-01-11T04:02:51.809Z,4.92
2019-01-11T04:05:21.030Z,4.65
2019-01-11T04:07:50.415Z,3.35
2019-01-11T04:10:21.841Z,3.10
2019-01-11T04:12:52.286Z,4.20
2019-01-11T04:15:21.465Z,3.25
2019-01-11T04:18:10.353Z,2.95
2019-01-11T04:20:39.738Z,2.70
2019-01-11T04:23:09.031Z,3.10
2019-01-11T04:25:39.031Z,3.37
2019-01-11T04:28:08.446Z,4.20
2019-01-11T04:30:37.688Z,4.10
2019-01-11T04:33:07.103Z,4.70
2019-01-11T04:35:36.337Z,4.70
2019-01-11T04:38:05.849Z,6.08
2019-01-11T04:40:35.410Z,3.90
2019-01-11T04:43:05.250Z,4.62
2019-01-11T04:45:34.561Z,5.50
2019-01-11T04:48:03.866Z,5.70
2019-01-11T04:50:34.021Z,4.87
2019-01-11T04:53:03.281Z,4.72
2019-01-11T04:55:32.100Z,5.67
2019-01-11T04:58:01.000Z,6.20
2019-01-11T05:00:29.778Z,8.85
2019-01-11T05:02:59.038Z,10.20
2019-01-11T05:05:28.138Z,9.08
2019-01-11T05:07:57.509Z,9.25
2019-01-11T05:10:26.862Z,5.87
2019-01-11T05:12:57.353Z,5.83
2019-01-11T05:15:26.562Z,4.22
2019-01-11T05:17:55.863Z,5.62
2019-01-11T05:20:25.124Z,5.17
2019-01-11T05:22:55.223Z,8.18
2019-01-11T05:25:24.583Z,9.53
2019-01-11T05:27:53.824Z,9.98
2019-01-11T05:30:23.376Z,10.72
2019-01-11T05:32:52.780Z,6.28
2019-01-11T05:35:22.000Z,5.40
2019-01-11T05:37:51.104Z,4.58
2019-01-11T05:40:20.982Z,4.35
2019-01-11T05:42:50.564Z,3.72
2019-01-11T05:45:19.388Z,3.90
2019-01-11T05:47:48.664Z,4.95
2019-01-11T05:50:23.921Z,3.98
2019-01-11T05:52:50.224Z,2.67
2019-01-11T05:55:21.086Z,6.37
2019-01-11T05:57:57.887Z,3.35
2019-01-11T06:00:27.272Z,5.40
2019-01-11T06:02:56.175Z,3.98
2019-01-11T06:05:25.627Z,4.15
2019-01-11T06:07:55.059Z,4.12
2019-01-11T06:10:24.694Z,3.75
2019-01-11T06:12:54.111Z,4.22
2019-01-11T06:15:23.320Z,3.00
2019-01-11T06:17:53.049Z,4.37
2019-01-11T06:20:22.403Z,4.42
2019-01-11T06:22:51.075Z,7.47
2019-01-11T06:25:19.730Z,4.58
2019-01-11T06:27:48.388Z,4.58
2019-01-11T06:30:18.076Z,4.72
2019-01-11T06:32:47.661Z,4.17
2019-01-11T06:35:18.096Z,3.60
2019-01-11T06:37:47.444Z,5.62
2019-01-11T06:40:16.746Z,3.75
2019-01-11T06:42:46.003Z,3.95
2019-01-11T06:45:15.160Z,3.75
2019-01-11T06:47:44.400Z,3.77
2019-01-11T06:50:15.288Z,3.60
2019-01-11T06:52:45.327Z,3.75
2019-01-11T06:55:14.825Z,3.98
2019-01-11T06:57:44.300Z,3.25
2019-01-11T07:00:17.914Z,4.22
2019-01-11T07:02:47.247Z,4.35
2019-01-11T07:05:16.854Z,4.55
2019-01-11T07:07:46.419Z,4.65
2019-01-11T07:10:20.751Z,3.08
2019-01-11T07:12:50.147Z,4.20
2019-01-11T07:15:19.723Z,4.28
2019-01-11T07:17:49.140Z,3.67
2019-01-11T07:20:18.709Z,4.37
2019-01-11T07:22:48.132Z,5.83
2019-01-11T07:25:18.455Z,4.62
2019-01-11T07:27:49.151Z,3.60
2019-01-11T07:30:18.475Z,2.90
2019-01-11T07:32:47.738Z,4.65
2019-01-11T07:35:17.312Z,4.65
2019-01-11T07:37:46.494Z,5.55
2019-01-11T07:40:16.153Z,7.20
2019-01-11T07:42:45.805Z,7.33
2019-01-11T07:45:15.379Z,8.58
2019-01-11T07:47:45.720Z,9.05
2019-01-11T07:50:15.143Z,11.03
2019-01-11T07:52:43.775Z,11.38
2019-01-11T07:55:12.541Z,12.20
2019-01-11T07:57:41.307Z,11.28
2019-01-11T08:00:12.240Z,12.47
2019-01-11T08:02:41.636Z,14.43
2019-01-11T08:05:11.461Z,10.55
2019-01-11T08:07:40.907Z,10.45
2019-01-11T08:10:11.592Z,8.55
2019-01-11T08:12:40.880Z,7.50
2019-01-11T08:15:13.072Z,10.30
2019-01-11T08:17:42.237Z,9.80
2019-01-11T08:20:11.502Z,10.45
2019-01-11T08:22:42.501Z,12.55
2019-01-11T08:25:13.295Z,10.72
2019-01-11T08:27:42.620Z,9.93
2019-01-11T08:30:16.780Z,9.48
2019-01-11T08:32:45.972Z,7.42
2019-01-11T08:35:15.440Z,6.50
2019-01-11T08:37:44.203Z,6.15
2019-01-11T08:40:13.165Z,7.53
2019-01-11T08:42:41.813Z,6.78
2019-01-11T08:45:14.020Z,6.90
2019-01-11T08:47:43.921Z,8.98
2019-01-11T08:50:17.318Z,7.87
2019-01-11T08:52:47.655Z,7.72
2019-01-11T08:55:16.855Z,7.53
2019-01-11T08:57:45.981Z,10.55
2019-01-11T09:00:15.852Z,13.88
2019-01-11T09:02:45.162Z,15.23
2019-01-11T09:05:14.682Z,11.33
2019-01-11T09:07:45.759Z,11.75
2019-01-11T09:10:22.370Z,12.00
2019-01-11T09:12:46.986Z,12.98
2019-01-11T09:15:16.045Z,14.85
2019-01-11T09:18:04.608Z,13.90
2019-01-11T09:20:33.258Z,15.15
2019-01-11T09:23:02.426Z,12.50
2019-01-11T09:25:31.745Z,14.30
2019-01-11T09:28:00.660Z,17.45
2019-01-11T09:30:29.977Z,15.43
2019-01-11T09:33:00.339Z,13.55
2019-01-11T09:35:29.505Z,16.50
2019-01-11T09:37:58.717Z,14.55
2019-01-11T09:40:28.168Z,15.72
2019-01-11T09:42:57.404Z,13.15
2019-01-11T09:45:26.536Z,14.15
2019-01-11T09:47:55.916Z,12.43
2019-01-11T09:50:24.983Z,12.75
2019-01-11T09:52:54.203Z,14.60
2019-01-11T09:55:24.630Z,12.75
2019-01-11T09:57:53.926Z,15.23
2019-01-11T10:00:26.792Z,15.83
2019-01-11T10:03:00.685Z,12.28
2019-01-11T10:05:29.240Z,12.70
2019-01-11T10:07:57.975Z,12.68
2019-01-11T10:10:27.338Z,10.28
2019-01-11T10:12:56.094Z,11.73
2019-01-11T10:15:25.176Z,13.18
2019-01-11T10:17:54.284Z,12.30
2019-01-11T10:20:23.510Z,12.55
2019-01-11T10:22:52.861Z,10.43
2019-01-11T10:25:22.563Z,10.88
2019-01-11T10:27:51.564Z,12.18
2019-01-11T10:30:22.643Z,10.28
2019-01-11T10:32:51.668Z,11.90
2019-01-11T10:35:21.132Z,10.78
2019-01-11T10:37:50.360Z,10.32
2019-01-11T10:40:20.301Z,12.28
2019-01-11T10:42:50.201Z,9.78
2019-01-11T10:45:21.585Z,9.93
2019-01-11T10:47:51.770Z,10.00
2019-01-11T10:50:21.566Z,10.10
2019-01-11T10:52:51.945Z,9.90
2019-01-11T10:55:20.922Z,9.70
2019-01-11T10:57:49.567Z,8.45
2019-01-11T11:00:21.569Z,9.75
2019-01-11T11:02:51.195Z,11.38
2019-01-11T11:05:21.080Z,9.80
2019-01-11T11:07:50.610Z,8.88
2019-01-11T11:10:20.127Z,10.65
2019-01-11T11:12:49.402Z,11.03
2019-01-11T11:15:18.963Z,9.15
2019-01-11T11:17:48.629Z,9.43
2019-01-11T11:20:19.129Z,10.70
2019-01-11T11:22:48.434Z,7.40
2019-01-11T11:25:19.225Z,10.32
2019-01-11T11:27:48.256Z,10.13
2019-01-11T11:30:18.339Z,10.72
2019-01-11T11:32:57.091Z,10.50
2019-01-11T11:35:26.601Z,11.05
2019-01-11T11:37:55.542Z,10.93
2019-01-11T11:40:24.822Z,9.88
2019-01-11T11:42:54.192Z,10.03
2019-01-11T11:45:23.397Z,10.23
2019-01-11T11:47:52.723Z,11.65
2019-01-11T11:50:23.323Z,11.03
2019-01-11T11:52:52.523Z,10.35
2019-01-11T11:55:21.918Z,10.50
2019-01-11T11:57:51.194Z,10.70
2019-01-11T12:00:22.307Z,13.20
2019-01-11T12:02:51.618Z,12.05
2019-01-11T12:05:21.284Z,10.05
2019-01-11T12:07:50.429Z,11.00
2019-01-11T12:10:19.717Z,10.58
2019-01-11T12:12:49.192Z,11.10
2019-01-11T12:15:18.313Z,10.53
2019-01-11T12:17:47.224Z,8.18
2019-01-11T12:20:18.984Z,9.20
2019-01-11T12:22:48.067Z,13.30
2019-01-11T12:25:16.704Z,10.82
2019-01-11T12:27:45.777Z,11.00
2019-01-11T12:30:16.454Z,13.35
2019-01-11T12:32:45.644Z,9.60
2019-01-11T12:35:14.729Z,11.73
2019-01-11T12:37:44.920Z,9.40
2019-01-11T12:40:15.199Z,10.08
2019-01-11T12:42:44.256Z,8.38
2019-01-11T12:45:15.533Z,8.95
2019-01-11T12:47:44.687Z,10.58
2019-01-11T12:50:17.440Z,9.50
2019-01-11T12:52:46.551Z,8.78
2019-01-11T12:55:16.156Z,9.98
2019-01-11T12:57:45.445Z,10.68
2019-01-11T13:00:16.202Z,9.63
2019-01-11T13:02:45.514Z,9.20
2019-01-11T13:05:16.459Z,7.42
2019-01-11T13:07:46.746Z,12.68
2019-01-11T13:10:17.578Z,9.88
2019-01-11T13:12:46.981Z,8.68
2019-01-11T13:15:18.020Z,8.13
2019-01-11T13:17:48.146Z,6.83
2019-01-11T13:20:18.987Z,8.10
2019-01-11T13:22:48.501Z,9.63
2019-01-11T13:25:17.615Z,9.58
2019-01-11T13:27:46.960Z,7.40
2019-01-11T13:30:17.155Z,10.00
2019-01-11T13:32:46.504Z,7.97
2019-01-11T13:35:15.791Z,10.18
2019-01-11T13:37:45.214Z,10.23
2019-01-11T13:40:19.844Z,7.42
2019-01-11T13:42:49.111Z,7.95
2019-01-11T13:45:18.138Z,8.55
2019-01-11T13:47:47.387Z,8.10
2019-01-11T13:50:31.845Z,8.28
2019-01-11T13:53:00.502Z,8.90
2019-01-11T13:55:29.533Z,8.10
2019-01-11T13:57:58.877Z,7.10
2019-01-11T14:00:28.157Z,7.40
2019-01-11T14:02:57.523Z,8.10
2019-01-11T14:05:27.778Z,8.65
2019-01-11T14:07:56.876Z,8.38
2019-01-11T14:10:26.188Z,7.70
2019-01-11T14:12:55.348Z,9.65
2019-01-11T14:15:24.611Z,8.80
2019-01-11T14:17:54.483Z,8.83
2019-01-11T14:20:23.767Z,7.47
2019-01-11T14:22:52.969Z,9.15
2019-01-11T14:25:22.912Z,8.70
2019-01-11T14:27:52.079Z,7.85
2019-01-11T14:30:21.048Z,8.33
2019-01-11T14:32:49.768Z,7.10
2019-01-11T14:35:18.404Z,8.15
2019-01-11T14:37:47.138Z,9.00
2019-01-11T14:40:17.403Z,7.78
2019-01-11T14:42:46.894Z,8.68
2019-01-11T14:45:17.314Z,4.85
2019-01-11T14:47:46.472Z,6.72
2019-01-11T14:50:17.185Z,4.97
2019-01-11T14:52:46.407Z,7.60
2019-01-11T14:55:15.607Z,6.35
2019-01-11T14:57:44.844Z,5.08
2019-01-11T15:00:17.381Z,7.60
2019-01-11T15:02:46.654Z,6.95
2019-01-11T15:05:16.832Z,5.17
2019-01-11T15:07:45.952Z,7.22
2019-01-11T15:10:17.292Z,4.15
2019-01-11T15:12:47.223Z,7.28
2019-01-11T15:15:16.313Z,5.72
2019-01-11T15:17:45.569Z,5.87
2019-01-11T15:20:16.394Z,5.45
2019-01-11T15:22:46.232Z,5.03
2019-01-11T15:25:15.423Z,5.10
2019-01-11T15:27:44.759Z,5.08
2019-01-11T15:30:16.153Z,5.87
2019-01-11T15:32:45.364Z,5.17
2019-01-11T15:35:15.032Z,7.05
2019-01-11T15:37:44.290Z,6.03
2019-01-11T15:40:19.344Z,7.28
2019-01-11T15:42:48.630Z,5.97
2019-01-11T15:45:18.108Z,5.10
2019-01-11T15:47:47.840Z,5.17
2019-01-11T15:50:42.742Z,6.17
2019-01-11T15:53:11.939Z,6.60
2019-01-11T15:55:41.060Z,4.95
2019-01-11T15:58:10.586Z,4.85
2019-01-11T16:00:44.542Z,4.42
2019-01-11T16:03:13.698Z,4.62
2019-01-11T16:05:43.636Z,5.58
2019-01-11T16:08:12.278Z,4.17
2019-01-11T16:10:56.472Z,4.97
2019-01-11T16:13:25.947Z,5.40
2019-01-11T16:15:58.029Z,3.77
2019-01-11T16:18:27.333Z,5.28
2019-01-11T16:20:56.716Z,5.30
2019-01-11T16:23:25.777Z,4.55
2019-01-11T16:25:54.883Z,4.80
2019-01-11T16:28:23.994Z,4.25
2019-01-11T16:30:53.052Z,4.62
2019-01-11T16:33:22.271Z,4.47
2019-01-11T16:35:51.879Z,5.35
2019-01-11T16:38:21.157Z,3.55
2019-01-11T16:40:50.158Z,3.62
2019-01-11T16:43:19.353Z,4.90
2019-01-11T16:45:47.986Z,3.67
2019-01-11T16:48:17.021Z,4.10
2019-01-11T16:50:45.640Z,4.65
2019-01-11T16:53:14.834Z,4.95
2019-01-11T16:55:44.394Z,3.90
2019-01-11T16:58:13.516Z,3.35
2019-01-11T17:00:42.600Z,3.77
2019-01-11T17:03:11.844Z,2.90
2019-01-11T17:05:41.142Z,4.22
2019-01-11T17:08:10.498Z,4.22
2019-01-11T17:10:39.702Z,5.40
2019-01-11T17:13:08.900Z,5.55
2019-01-11T17:15:38.315Z,4.05
2019-01-11T17:18:07.689Z,3.60
2019-01-11T17:20:36.587Z,3.20
2019-01-11T17:23:05.780Z,4.10
2019-01-11T17:25:35.219Z,3.50
2019-01-11T17:28:04.305Z,3.98
2019-01-11T17:30:33.701Z,3.37
2019-01-11T17:33:03.906Z,4.40
2019-01-11T17:35:33.102Z,3.95
2019-01-11T17:38:02.292Z,4.00
2019-01-11T17:40:31.631Z,4.08
2019-01-11T17:43:01.019Z,5.05
2019-01-11T17:45:30.079Z,3.45
2019-01-11T17:47:59.182Z,3.75
2019-01-11T17:50:28.410Z,4.00
2019-01-11T17:52:59.915Z,4.58
2019-01-11T17:55:28.875Z,3.87
2019-01-11T17:57:57.995Z,3.75
2019-01-11T18:00:27.337Z,5.03
2019-01-11T18:02:56.774Z,5.33
2019-01-11T18:05:27.004Z,4.78
2019-01-11T18:07:56.172Z,3.80
2019-01-11T18:10:25.627Z,3.37
2019-01-11T18:12:54.248Z,3.05
2019-01-11T18:15:22.923Z,4.25
2019-01-11T18:17:51.695Z,2.98
2019-01-11T18:20:23.525Z,4.37
2019-01-11T18:22:52.799Z,3.77
2019-01-11T18:25:23.013Z,3.77
2019-01-11T18:27:52.199Z,3.60
2019-01-11T18:30:21.494Z,4.92
2019-01-11T18:32:51.604Z,5.35
2019-01-11T18:35:20.898Z,4.45
2019-01-11T18:37:50.093Z,3.30
2019-01-11T18:40:22.149Z,4.47
2019-01-11T18:42:51.570Z,3.15
2019-01-11T18:45:20.841Z,3.70
2019-01-11T18:47:51.222Z,4.17
2019-01-11T18:50:23.840Z,3.62
2019-01-11T18:52:53.078Z,3.20
2019-01-11T18:55:21.636Z,3.45
2019-01-11T18:57:50.361Z,3.90
2019-01-11T19:00:21.025Z,3.80
2019-01-11T19:02:49.678Z,4.03
2019-01-11T19:05:20.011Z,4.35
2019-01-11T19:07:49.080Z,3.65
2019-01-11T19:10:19.666Z,4.10
2019-01-11T19:12:49.123Z,3.65
2019-01-11T19:15:20.051Z,3.17
2019-01-11T19:17:49.244Z,3.52
2019-01-11T19:20:20.218Z,3.25
2019-01-11T19:22:49.708Z,3.72
2019-01-11T19:25:19.182Z,5.70
2019-01-11T19:27:48.476Z,10.55
2019-01-11T19:30:22.845Z,3.27
2019-01-11T19:32:51.985Z,2.50
2019-01-11T19:35:22.239Z,3.37
2019-01-11T19:37:51.517Z,3.55
2019-01-11T19:40:20.246Z,3.60
2019-01-11T19:42:50.784Z,3.90
2019-01-11T19:45:20.041Z,4.37
2019-01-11T19:47:49.304Z,3.02
2019-01-11T19:50:21.172Z,3.90
2019-01-11T19:52:50.568Z,5.78
2019-01-11T19:55:20.179Z,3.60
2019-01-11T19:57:49.350Z,4.25
2019-01-11T20:00:23.168Z,4.70
2019-01-11T20:02:52.441Z,3.80
2019-01-11T20:05:21.575Z,3.55
2019-01-11T20:07:50.797Z,6.03
2019-01-11T20:10:22.777Z,4.47
2019-01-11T20:12:51.908Z,4.70
2019-01-11T20:15:21.526Z,5.03
2019-01-11T20:17:50.731Z,3.30
2019-01-11T20:20:20.210Z,6.15
2019-01-11T20:22:49.145Z,4.37
2019-01-11T20:25:22.692Z,2.65
2019-01-11T20:27:52.361Z,5.10
2019-01-11T20:30:23.095Z,3.65
2019-01-11T20:32:52.207Z,3.30
2019-01-11T20:35:21.488Z,2.70
2019-01-11T20:37:50.654Z,3.12
2019-01-11T20:40:20.744Z,5.28
2019-01-11T20:42:49.969Z,3.62
2019-01-11T20:45:19.670Z,2.95
2019-01-11T20:47:49.181Z,2.85
2019-01-11T20:50:20.773Z,4.97
2019-01-11T20:52:50.539Z,4.25
2019-01-11T20:55:20.004Z,3.25
2019-01-11T20:57:49.282Z,4.58
2019-01-11T21:00:27.330Z,3.47
2019-01-11T21:02:56.489Z,3.12
2019-01-11T21:05:26.436Z,3.45
2019-01-11T21:07:55.266Z,3.60
2019-01-11T21:10:24.118Z,4.25
2019-01-11T21:12:52.843Z,3.75
2019-01-11T21:15:23.092Z,2.75
2019-01-11T21:17:53.376Z,3.02
2019-01-11T21:20:23.617Z,3.33
2019-01-11T21:22:52.917Z,3.98
2019-01-11T21:25:22.643Z,5.50
2019-01-11T21:27:52.034Z,3.55
2019-01-11T21:30:25.874Z,4.55
2019-01-11T21:32:55.261Z,2.70
2019-01-11T21:35:24.480Z,2.92
2019-01-11T21:37:53.623Z,4.25
2019-01-11T21:40:22.924Z,3.40
2019-01-11T21:42:52.311Z,2.95
2019-01-11T21:45:21.728Z,6.40
2019-01-11T21:47:50.818Z,3.75
2019-01-11T21:50:22.121Z,3.98
2019-01-11T21:52:51.787Z,5.28
2019-01-11T21:55:21.149Z,4.47
2019-01-11T21:57:49.868Z,3.10
2019-01-11T22:00:27.219Z,3.75
2019-01-11T22:02:56.229Z,3.50
2019-01-11T22:05:25.323Z,3.33
2019-01-11T22:07:54.558Z,4.60
2019-01-11T22:10:23.772Z,4.35
2019-01-11T22:12:53.356Z,3.75
2019-01-11T22:15:22.420Z,5.03
2019-01-11T22:17:51.418Z,3.67
2019-01-11T22:20:21.977Z,4.87
2019-01-11T22:22:51.379Z,4.72
2019-01-11T22:25:20.401Z,5.20
2019-01-11T22:27:49.609Z,4.50
2019-01-11T22:30:30.299Z,5.60
2019-01-11T22:32:55.738Z,7.22
2019-01-11T22:35:24.488Z,9.63
2019-01-11T22:37:53.266Z,4.90
2019-01-11T22:40:23.516Z,5.90
2019-01-11T22:42:57.549Z,4.67
2019-01-11T22:45:26.813Z,4.28
2019-01-11T22:47:56.520Z,4.55
2019-01-11T22:50:25.662Z,4.83
2019-01-11T22:52:54.930Z,4.25
2019-01-11T22:55:24.455Z,4.97
2019-01-11T22:57:53.639Z,4.30
2019-01-11T23:00:44.927Z,3.98
2019-01-11T23:03:23.025Z,5.45
2019-01-11T23:05:54.953Z,7.30
2019-01-11T23:08:25.272Z,5.15
2019-01-11T23:11:13.544Z,4.83
2019-01-11T23:13:43.213Z,5.58
2019-01-11T23:16:15.508Z,4.35
2019-01-11T23:18:44.254Z,4.20
2019-01-11T23:21:13.116Z,5.47
2019-01-11T23:23:41.791Z,4.45
2019-01-11T23:26:11.120Z,5.20
2019-01-11T23:28:40.494Z,5.28
2019-01-11T23:31:09.770Z,4.83
2019-01-11T23:33:40.590Z,6.05
2019-01-11T23:36:10.186Z,4.15
2019-01-11T23:38:39.669Z,4.78
2019-01-11T23:41:09.144Z,5.87
2019-01-11T23:43:39.196Z,4.53
2019-01-11T23:46:08.301Z,4.78
2019-01-11T23:48:37.356Z,4.75
2019-01-11T23:51:06.444Z,5.00
2019-01-11T23:53:36.596Z,4.60
2019-01-11T23:56:05.857Z,4.30
2019-01-11T23:58:35.371Z,5.53
